sensor_id;sensor_type;location;lat;lon;timestamp;temperature;humidity
8178;DHT22;4130;48.740;9.132;2023-06-10T00:00:49;14.80;99.90
8178;DHT22;4130;48.740;9.132;2023-06-10T00:03:16;14.70;99.90
8178;DHT22;4130;48.740;9.132;2023-06-10T00:05:43;14.70;99.90
8178;DHT22;4130;48.740;9.132;2023-06-10T00:08:10;14.70;99.90
8178;DHT22;4130;48.740;9.132;2023-06-10T00:10:38;14.70;99.90
8178;DHT22;4130;48.740;9.132;2023-06-10T00:13:06;14.70;99.90
8178;DHT22;4130;48.740;9.132;2023-06-10T00:15:34;14.60;99.90
8178;DHT22;4130;48.740;9.132;2023-06-10T00:18:03;14.60;99.90
8178;DHT22;4130;48.740;9.132;2023-06-10T00:20:31;14.50;99.90
8178;DHT22;4130;48.740;9.132;2023-06-10T00:22:58;14.60;99.90
8178;DHT22;4130;48.740;9.132;2023-06-10T00:25:27;14.50;99.90
8178;DHT22;4130;48.740;9.132;2023-06-10T00:27:53;14.60;99.90
8178;DHT22;4130;48.740;9.132;2023-06-10T00:30:20;14.50;99.90
8178;DHT22;4130;48.740;9.132;2023-06-10T00:32:47;14.50;99.90
8178;DHT22;4130;48.740;9.132;2023-06-10T00:35:15;14.40;99.90
8178;DHT22;4130;48.740;9.132;2023-06-10T00:37:42;14.40;99.90
8178;DHT22;4130;48.740;9.132;2023-06-10T00:40:09;14.40;99.90
8178;DHT22;4130;48.740;9.132;2023-06-10T00:42:37;14.30;99.90
8178;DHT22;4130;48.740;9.132;2023-06-10T00:45:04;14.30;99.90
8178;DHT22;4130;48.740;9.132;2023-06-10T00:47:31;14.20;99.90
8178;DHT22;4130;48.740;9.132;2023-06-10T00:49:58;14.40;99.90
8178;DHT22;4130;48.740;9.132;2023-06-10T00:52:28;14.20;99.90
8178;DHT22;4130;48.740;9.132;2023-06-10T00:54:55;14.20;99.90
8178;DHT22;4130;48.740;9.132;2023-06-10T00:57:22;14.20;99.90
8178;DHT22;4130;48.740;9.132;2023-06-10T00:59:49;14.10;99.90
8178;DHT22;4130;48.740;9.132;2023-06-10T01:02:16;14.10;99.90
8178;DHT22;4130;48.740;9.132;2023-06-10T01:04:43;14.10;99.90
8178;DHT22;4130;48.740;9.132;2023-06-10T01:07:15;14.00;99.90
8178;DHT22;4130;48.740;9.132;2023-06-10T01:09:52;13.90;99.90
8178;DHT22;4130;48.740;9.132;2023-06-10T01:12:29;14.00;99.90
8178;DHT22;4130;48.740;9.132;2023-06-10T01:14:58;13.90;99.90
8178;DHT22;4130;48.740;9.132;2023-06-10T01:17:26;13.90;99.90
8178;DHT22;4130;48.740;9.132;2023-06-10T01:19:54;13.90;99.90
8178;DHT22;4130;48.740;9.132;2023-06-10T01:22:23;13.90;99.90
8178;DHT22;4130;48.740;9.132;2023-06-10T01:24:51;13.80;99.90
8178;DHT22;4130;48.740;9.132;2023-06-10T01:27:19;13.80;99.90
8178;DHT22;4130;48.740;9.132;2023-06-10T01:29:53;13.80;99.90
8178;DHT22;4130;48.740;9.132;2023-06-10T01:32:27;13.80;99.90
8178;DHT22;4130;48.740;9.132;2023-06-10T01:34:56;13.80;99.90
8178;DHT22;4130;48.740;9.132;2023-06-10T01:37:25;13.80;99.90
8178;DHT22;4130;48.740;9.132;2023-06-10T01:39:55;13.70;99.90
8178;DHT22;4130;48.740;9.132;2023-06-10T01:42:23;13.70;99.90
8178;DHT22;4130;48.740;9.132;2023-06-10T01:44:51;13.70;99.90
8178;DHT22;4130;48.740;9.132;2023-06-10T01:47:17;13.70;99.90
8178;DHT22;4130;48.740;9.132;2023-06-10T01:49:45;13.60;99.90
8178;DHT22;4130;48.740;9.132;2023-06-10T01:52:12;13.60;99.90
8178;DHT22;4130;48.740;9.132;2023-06-10T01:54:40;13.50;99.90
8178;DHT22;4130;48.740;9.132;2023-06-10T01:57:07;13.50;99.90
8178;DHT22;4130;48.740;9.132;2023-06-10T01:59:33;13.50;99.90
8178;DHT22;4130;48.740;9.132;2023-06-10T02:02:02;13.50;99.90
8178;DHT22;4130;48.740;9.132;2023-06-10T02:04:28;13.40;99.90
8178;DHT22;4130;48.740;9.132;2023-06-10T02:06:55;13.40;99.90
8178;DHT22;4130;48.740;9.132;2023-06-10T02:09:22;13.40;99.90
8178;DHT22;4130;48.740;9.132;2023-06-10T02:11:50;13.40;99.90
8178;DHT22;4130;48.740;9.132;2023-06-10T02:14:17;13.30;99.90
8178;DHT22;4130;48.740;9.132;2023-06-10T02:16:43;13.40;99.90
8178;DHT22;4130;48.740;9.132;2023-06-10T02:19:12;13.30;99.90
8178;DHT22;4130;48.740;9.132;2023-06-10T02:21:39;13.30;99.90
8178;DHT22;4130;48.740;9.132;2023-06-10T02:24:06;13.20;99.90
8178;DHT22;4130;48.740;9.132;2023-06-10T02:26:33;13.30;99.90
8178;DHT22;4130;48.740;9.132;2023-06-10T02:29:01;13.20;99.90
8178;DHT22;4130;48.740;9.132;2023-06-10T02:31:29;13.20;99.90
8178;DHT22;4130;48.740;9.132;2023-06-10T02:33:55;13.20;99.90
8178;DHT22;4130;48.740;9.132;2023-06-10T02:36:22;13.20;99.90
8178;DHT22;4130;48.740;9.132;2023-06-10T02:38:49;13.10;99.90
8178;DHT22;4130;48.740;9.132;2023-06-10T02:41:16;13.10;99.90
8178;DHT22;4130;48.740;9.132;2023-06-10T02:43:43;13.10;99.90
8178;DHT22;4130;48.740;9.132;2023-06-10T02:46:11;13.10;99.90
8178;DHT22;4130;48.740;9.132;2023-06-10T02:48:41;13.10;99.90
8178;DHT22;4130;48.740;9.132;2023-06-10T02:51:09;13.00;99.90
8178;DHT22;4130;48.740;9.132;2023-06-10T02:53:36;13.00;99.90
8178;DHT22;4130;48.740;9.132;2023-06-10T02:56:03;12.90;99.90
8178;DHT22;4130;48.740;9.132;2023-06-10T02:58:30;12.90;99.90
8178;DHT22;4130;48.740;9.132;2023-06-10T03:00:56;12.90;99.90
8178;DHT22;4130;48.740;9.132;2023-06-10T03:03:25;12.80;99.90
8178;DHT22;4130;48.740;9.132;2023-06-10T03:05:53;12.80;99.90
8178;DHT22;4130;48.740;9.132;2023-06-10T03:08:19;12.80;99.90
8178;DHT22;4130;48.740;9.132;2023-06-10T03:10:46;12.70;99.90
8178;DHT22;4130;48.740;9.132;2023-06-10T03:13:13;12.80;99.90
8178;DHT22;4130;48.740;9.132;2023-06-10T03:15:40;12.70;99.90
8178;DHT22;4130;48.740;9.132;2023-06-10T03:18:07;12.70;99.90
8178;DHT22;4130;48.740;9.132;2023-06-10T03:20:35;12.70;99.90
8178;DHT22;4130;48.740;9.132;2023-06-10T03:23:03;12.70;99.90
8178;DHT22;4130;48.740;9.132;2023-06-10T03:25:31;12.70;99.90
8178;DHT22;4130;48.740;9.132;2023-06-10T03:27:58;12.60;99.90
8178;DHT22;4130;48.740;9.132;2023-06-10T03:30:25;12.60;99.90
8178;DHT22;4130;48.740;9.132;2023-06-10T03:32:52;12.60;99.90
8178;DHT22;4130;48.740;9.132;2023-06-10T03:35:19;12.60;99.90
8178;DHT22;4130;48.740;9.132;2023-06-10T03:37:47;12.60;99.90
8178;DHT22;4130;48.740;9.132;2023-06-10T03:40:14;12.60;99.90
8178;DHT22;4130;48.740;9.132;2023-06-10T03:42:40;12.70;99.90
8178;DHT22;4130;48.740;9.132;2023-06-10T03:45:10;12.70;99.90
8178;DHT22;4130;48.740;9.132;2023-06-10T03:47:37;12.70;99.90
8178;DHT22;4130;48.740;9.132;2023-06-10T03:50:06;12.70;99.90
8178;DHT22;4130;48.740;9.132;2023-06-10T03:52:34;12.70;99.90
8178;DHT22;4130;48.740;9.132;2023-06-10T03:55:03;12.70;99.90
8178;DHT22;4130;48.740;9.132;2023-06-10T03:57:30;12.70;99.90
8178;DHT22;4130;48.740;9.132;2023-06-10T03:59:57;12.70;99.90
8178;DHT22;4130;48.740;9.132;2023-06-10T04:02:24;12.80;99.90
8178;DHT22;4130;48.740;9.132;2023-06-10T04:04:51;12.80;99.90
8178;DHT22;4130;48.740;9.132;2023-06-10T04:07:17;12.80;99.90
8178;DHT22;4130;48.740;9.132;2023-06-10T04:09:45;12.80;99.90
8178;DHT22;4130;48.740;9.132;2023-06-10T04:12:14;12.80;99.90
8178;DHT22;4130;48.740;9.132;2023-06-10T04:14:42;12.90;99.90
8178;DHT22;4130;48.740;9.132;2023-06-10T04:17:08;12.90;99.90
8178;DHT22;4130;48.740;9.132;2023-06-10T04:19:36;13.00;99.90
8178;DHT22;4130;48.740;9.132;2023-06-10T04:22:03;13.00;99.90
8178;DHT22;4130;48.740;9.132;2023-06-10T04:24:30;13.00;99.90
8178;DHT22;4130;48.740;9.132;2023-06-10T04:26:57;13.10;99.90
8178;DHT22;4130;48.740;9.132;2023-06-10T04:29:25;13.10;99.90
8178;DHT22;4130;48.740;9.132;2023-06-10T04:31:52;13.20;99.90
8178;DHT22;4130;48.740;9.132;2023-06-10T04:34:19;13.20;99.90
8178;DHT22;4130;48.740;9.132;2023-06-10T04:36:45;13.30;99.90
8178;DHT22;4130;48.740;9.132;2023-06-10T04:39:13;13.40;99.90
8178;DHT22;4130;48.740;9.132;2023-06-10T04:41:42;13.40;99.90
8178;DHT22;4130;48.740;9.132;2023-06-10T04:44:08;13.50;99.90
8178;DHT22;4130;48.740;9.132;2023-06-10T04:46:37;13.50;99.90
8178;DHT22;4130;48.740;9.132;2023-06-10T04:49:04;13.60;99.90
8178;DHT22;4130;48.740;9.132;2023-06-10T04:51:31;13.60;99.90
8178;DHT22;4130;48.740;9.132;2023-06-10T04:53:58;13.60;99.90
8178;DHT22;4130;48.740;9.132;2023-06-10T04:56:28;13.70;99.90
8178;DHT22;4130;48.740;9.132;2023-06-10T04:58:55;13.80;99.90
8178;DHT22;4130;48.740;9.132;2023-06-10T05:01:22;13.80;99.90
8178;DHT22;4130;48.740;9.132;2023-06-10T05:03:50;13.90;99.90
8178;DHT22;4130;48.740;9.132;2023-06-10T05:06:17;14.00;99.90
8178;DHT22;4130;48.740;9.132;2023-06-10T05:08:44;14.10;99.90
8178;DHT22;4130;48.740;9.132;2023-06-10T05:11:10;14.10;99.90
8178;DHT22;4130;48.740;9.132;2023-06-10T05:13:37;14.20;99.90
8178;DHT22;4130;48.740;9.132;2023-06-10T05:16:05;14.20;99.90
8178;DHT22;4130;48.740;9.132;2023-06-10T05:18:33;14.30;99.90
8178;DHT22;4130;48.740;9.132;2023-06-10T05:21:02;14.40;99.90
8178;DHT22;4130;48.740;9.132;2023-06-10T05:23:29;14.40;99.90
8178;DHT22;4130;48.740;9.132;2023-06-10T05:25:55;14.50;99.90
8178;DHT22;4130;48.740;9.132;2023-06-10T05:28:23;14.50;99.90
8178;DHT22;4130;48.740;9.132;2023-06-10T05:30:50;14.60;99.90
8178;DHT22;4130;48.740;9.132;2023-06-10T05:33:17;14.60;99.90
8178;DHT22;4130;48.740;9.132;2023-06-10T05:35:44;14.70;99.90
8178;DHT22;4130;48.740;9.132;2023-06-10T05:38:12;14.80;99.90
8178;DHT22;4130;48.740;9.132;2023-06-10T05:40:38;14.90;99.90
8178;DHT22;4130;48.740;9.132;2023-06-10T05:43:05;15.00;99.90
8178;DHT22;4130;48.740;9.132;2023-06-10T05:45:32;15.10;99.90
8178;DHT22;4130;48.740;9.132;2023-06-10T05:47:59;15.20;99.90
8178;DHT22;4130;48.740;9.132;2023-06-10T05:50:25;15.30;99.90
8178;DHT22;4130;48.740;9.132;2023-06-10T05:52:52;15.20;99.90
8178;DHT22;4130;48.740;9.132;2023-06-10T05:55:21;15.40;99.90
8178;DHT22;4130;48.740;9.132;2023-06-10T05:57:58;15.50;99.90
8178;DHT22;4130;48.740;9.132;2023-06-10T06:00:25;15.70;99.90
8178;DHT22;4130;48.740;9.132;2023-06-10T06:02:52;15.70;99.90
8178;DHT22;4130;48.740;9.132;2023-06-10T06:05:19;15.80;99.90
8178;DHT22;4130;48.740;9.132;2023-06-10T06:07:46;15.90;99.90
8178;DHT22;4130;48.740;9.132;2023-06-10T06:10:13;16.10;99.90
8178;DHT22;4130;48.740;9.132;2023-06-10T06:12:41;16.20;99.90
8178;DHT22;4130;48.740;9.132;2023-06-10T06:15:09;16.30;99.90
8178;DHT22;4130;48.740;9.132;2023-06-10T06:17:36;16.40;99.90
8178;DHT22;4130;48.740;9.132;2023-06-10T06:20:03;16.60;99.90
8178;DHT22;4130;48.740;9.132;2023-06-10T06:22:30;16.70;99.90
8178;DHT22;4130;48.740;9.132;2023-06-10T06:24:57;16.80;99.90
8178;DHT22;4130;48.740;9.132;2023-06-10T06:27:24;17.10;99.90
8178;DHT22;4130;48.740;9.132;2023-06-10T06:29:52;17.20;99.90
8178;DHT22;4130;48.740;9.132;2023-06-10T06:32:19;17.40;99.90
8178;DHT22;4130;48.740;9.132;2023-06-10T06:34:47;17.40;99.90
8178;DHT22;4130;48.740;9.132;2023-06-10T06:37:15;17.60;99.90
8178;DHT22;4130;48.740;9.132;2023-06-10T06:39:41;17.70;99.90
8178;DHT22;4130;48.740;9.132;2023-06-10T06:42:08;17.90;99.90
8178;DHT22;4130;48.740;9.132;2023-06-10T06:44:35;18.10;99.90
8178;DHT22;4130;48.740;9.132;2023-06-10T06:47:03;18.20;99.90
8178;DHT22;4130;48.740;9.132;2023-06-10T06:49:30;18.40;99.90
8178;DHT22;4130;48.740;9.132;2023-06-10T06:51:57;18.60;99.90
8178;DHT22;4130;48.740;9.132;2023-06-10T06:54:24;18.90;99.90
8178;DHT22;4130;48.740;9.132;2023-06-10T06:56:51;19.10;99.90
8178;DHT22;4130;48.740;9.132;2023-06-10T06:59:17;19.40;99.90
8178;DHT22;4130;48.740;9.132;2023-06-10T07:01:45;19.60;99.90
8178;DHT22;4130;48.740;9.132;2023-06-10T07:04:15;20.00;99.90
8178;DHT22;4130;48.740;9.132;2023-06-10T07:06:42;20.60;99.90
8178;DHT22;4130;48.740;9.132;2023-06-10T07:09:08;21.10;99.90
8178;DHT22;4130;48.740;9.132;2023-06-10T07:11:35;21.70;99.90
8178;DHT22;4130;48.740;9.132;2023-06-10T07:14:02;22.30;99.90
8178;DHT22;4130;48.740;9.132;2023-06-10T07:16:29;22.70;99.30
8178;DHT22;4130;48.740;9.132;2023-06-10T07:18:55;22.90;98.30
8178;DHT22;4130;48.740;9.132;2023-06-10T07:21:24;23.10;97.60
8178;DHT22;4130;48.740;9.132;2023-06-10T07:23:50;23.30;96.90
8178;DHT22;4130;48.740;9.132;2023-06-10T07:26:19;23.60;96.80
8178;DHT22;4130;48.740;9.132;2023-06-10T07:28:46;23.90;96.60
8178;DHT22;4130;48.740;9.132;2023-06-10T07:31:13;24.20;95.70
8178;DHT22;4130;48.740;9.132;2023-06-10T07:33:39;24.20;95.50
8178;DHT22;4130;48.740;9.132;2023-06-10T07:36:07;24.10;94.70
8178;DHT22;4130;48.740;9.132;2023-06-10T07:38:35;24.20;95.00
8178;DHT22;4130;48.740;9.132;2023-06-10T07:41:03;24.20;94.40
8178;DHT22;4130;48.740;9.132;2023-06-10T07:43:30;24.40;94.40
8178;DHT22;4130;48.740;9.132;2023-06-10T07:45:56;24.60;94.40
8178;DHT22;4130;48.740;9.132;2023-06-10T07:48:23;24.90;94.20
8178;DHT22;4130;48.740;9.132;2023-06-10T07:50:50;24.60;94.10
8178;DHT22;4130;48.740;9.132;2023-06-10T07:53:17;24.40;93.90
8178;DHT22;4130;48.740;9.132;2023-06-10T07:55:45;24.30;93.60
8178;DHT22;4130;48.740;9.132;2023-06-10T07:58:12;24.10;93.50
8178;DHT22;4130;48.740;9.132;2023-06-10T08:00:38;24.20;93.50
8178;DHT22;4130;48.740;9.132;2023-06-10T08:03:05;24.40;93.20
8178;DHT22;4130;48.740;9.132;2023-06-10T08:05:32;24.50;93.30
8178;DHT22;4130;48.740;9.132;2023-06-10T08:07:59;24.40;92.90
8178;DHT22;4130;48.740;9.132;2023-06-10T08:10:26;24.50;92.90
8178;DHT22;4130;48.740;9.132;2023-06-10T08:12:54;24.50;93.10
8178;DHT22;4130;48.740;9.132;2023-06-10T08:15:20;24.50;93.00
8178;DHT22;4130;48.740;9.132;2023-06-10T08:17:47;24.50;92.90
8178;DHT22;4130;48.740;9.132;2023-06-10T08:20:14;24.50;93.00
8178;DHT22;4130;48.740;9.132;2023-06-10T08:22:41;24.70;92.60
8178;DHT22;4130;48.740;9.132;2023-06-10T08:25:08;25.10;92.50
8178;DHT22;4130;48.740;9.132;2023-06-10T08:27:36;25.70;92.40
8178;DHT22;4130;48.740;9.132;2023-06-10T08:30:05;25.70;92.00
8178;DHT22;4130;48.740;9.132;2023-06-10T08:32:32;26.10;92.00
8178;DHT22;4130;48.740;9.132;2023-06-10T08:34:59;26.90;92.10
8178;DHT22;4130;48.740;9.132;2023-06-10T08:37:26;27.40;91.40
8178;DHT22;4130;48.740;9.132;2023-06-10T08:39:52;28.00;91.20
8178;DHT22;4130;48.740;9.132;2023-06-10T08:42:23;28.30;89.60
8178;DHT22;4130;48.740;9.132;2023-06-10T08:44:53;28.10;89.50
8178;DHT22;4130;48.740;9.132;2023-06-10T08:47:23;28.20;90.10
8178;DHT22;4130;48.740;9.132;2023-06-10T08:49:51;28.30;90.00
8178;DHT22;4130;48.740;9.132;2023-06-10T08:52:20;28.60;89.10
8178;DHT22;4130;48.740;9.132;2023-06-10T08:54:51;28.80;86.80
8178;DHT22;4130;48.740;9.132;2023-06-10T08:57:19;28.70;88.00
8178;DHT22;4130;48.740;9.132;2023-06-10T08:59:47;28.70;88.00
8178;DHT22;4130;48.740;9.132;2023-06-10T09:02:15;29.10;87.50
8178;DHT22;4130;48.740;9.132;2023-06-10T09:04:47;29.50;87.00
8178;DHT22;4130;48.740;9.132;2023-06-10T09:07:15;29.80;87.30
8178;DHT22;4130;48.740;9.132;2023-06-10T09:09:42;30.10;87.30
8178;DHT22;4130;48.740;9.132;2023-06-10T09:12:10;29.80;84.60
8178;DHT22;4130;48.740;9.132;2023-06-10T09:14:37;29.50;84.90
8178;DHT22;4130;48.740;9.132;2023-06-10T09:17:05;29.50;86.30
8178;DHT22;4130;48.740;9.132;2023-06-10T09:19:32;29.10;85.60
8178;DHT22;4130;48.740;9.132;2023-06-10T09:22:00;29.60;86.50
8178;DHT22;4130;48.740;9.132;2023-06-10T09:24:27;29.90;84.30
8178;DHT22;4130;48.740;9.132;2023-06-10T09:27:02;30.10;83.60
8178;DHT22;4130;48.740;9.132;2023-06-10T09:29:29;30.50;82.10
8178;DHT22;4130;48.740;9.132;2023-06-10T09:31:56;30.40;83.00
8178;DHT22;4130;48.740;9.132;2023-06-10T09:34:25;30.60;82.30
8178;DHT22;4130;48.740;9.132;2023-06-10T09:36:52;30.80;81.90
8178;DHT22;4130;48.740;9.132;2023-06-10T09:39:21;30.70;81.90
8178;DHT22;4130;48.740;9.132;2023-06-10T09:41:48;30.50;81.30
8178;DHT22;4130;48.740;9.132;2023-06-10T09:44:16;30.50;82.10
8178;DHT22;4130;48.740;9.132;2023-06-10T09:46:45;30.50;81.50
8178;DHT22;4130;48.740;9.132;2023-06-10T09:49:12;30.50;81.50
8178;DHT22;4130;48.740;9.132;2023-06-10T09:51:49;30.30;80.80
8178;DHT22;4130;48.740;9.132;2023-06-10T09:54:16;29.60;81.70
8178;DHT22;4130;48.740;9.132;2023-06-10T09:56:46;29.70;81.70
8178;DHT22;4130;48.740;9.132;2023-06-10T09:59:14;29.60;81.80
8178;DHT22;4130;48.740;9.132;2023-06-10T10:01:41;30.20;81.70
8178;DHT22;4130;48.740;9.132;2023-06-10T10:04:08;30.70;80.50
8178;DHT22;4130;48.740;9.132;2023-06-10T10:06:35;30.90;79.90
8178;DHT22;4130;48.740;9.132;2023-06-10T10:09:03;31.10;78.90
8178;DHT22;4130;48.740;9.132;2023-06-10T10:11:32;31.50;79.00
8178;DHT22;4130;48.740;9.132;2023-06-10T10:14:04;32.10;79.70
8178;DHT22;4130;48.740;9.132;2023-06-10T10:16:36;32.70;77.40
8178;DHT22;4130;48.740;9.132;2023-06-10T10:19:07;32.50;76.80
8178;DHT22;4130;48.740;9.132;2023-06-10T10:21:38;32.60;76.30
8178;DHT22;4130;48.740;9.132;2023-06-10T10:24:12;33.00;77.10
8178;DHT22;4130;48.740;9.132;2023-06-10T10:26:41;33.50;75.40
8178;DHT22;4130;48.740;9.132;2023-06-10T10:29:14;33.40;75.00
8178;DHT22;4130;48.740;9.132;2023-06-10T10:31:43;33.20;75.90
8178;DHT22;4130;48.740;9.132;2023-06-10T10:34:15;33.00;75.20
8178;DHT22;4130;48.740;9.132;2023-06-10T10:36:42;32.70;76.00
8178;DHT22;4130;48.740;9.132;2023-06-10T10:39:09;32.40;75.80
8178;DHT22;4130;48.740;9.132;2023-06-10T10:41:38;32.20;76.50
8178;DHT22;4130;48.740;9.132;2023-06-10T10:44:06;31.80;76.10
8178;DHT22;4130;48.740;9.132;2023-06-10T10:46:43;31.20;76.90
8178;DHT22;4130;48.740;9.132;2023-06-10T10:49:12;30.90;76.90
8178;DHT22;4130;48.740;9.132;2023-06-10T10:51:54;30.60;77.10
8178;DHT22;4130;48.740;9.132;2023-06-10T10:54:28;30.10;77.30
8178;DHT22;4130;48.740;9.132;2023-06-10T10:57:14;29.60;77.90
8178;DHT22;4130;48.740;9.132;2023-06-10T10:59:58;29.00;78.40
8178;DHT22;4130;48.740;9.132;2023-06-10T11:02:34;28.70;79.80
8178;DHT22;4130;48.740;9.132;2023-06-10T11:05:04;28.50;79.80
8178;DHT22;4130;48.740;9.132;2023-06-10T11:07:32;28.30;79.10
8178;DHT22;4130;48.740;9.132;2023-06-10T11:10:00;28.20;79.50
8178;DHT22;4130;48.740;9.132;2023-06-10T11:12:47;28.00;80.50
8178;DHT22;4130;48.740;9.132;2023-06-10T11:15:18;28.10;80.00
8178;DHT22;4130;48.740;9.132;2023-06-10T11:20:54;27.90;79.90
8178;DHT22;4130;48.740;9.132;2023-06-10T11:23:39;28.10;80.80
8178;DHT22;4130;48.740;9.132;2023-06-10T11:26:10;29.00;79.70
8178;DHT22;4130;48.740;9.132;2023-06-10T11:28:37;29.80;78.90
8178;DHT22;4130;48.740;9.132;2023-06-10T11:31:04;30.70;77.00
8178;DHT22;4130;48.740;9.132;2023-06-10T11:33:31;30.80;75.10
8178;DHT22;4130;48.740;9.132;2023-06-10T11:35:59;30.30;76.80
8178;DHT22;4130;48.740;9.132;2023-06-10T11:38:26;29.80;77.60
8178;DHT22;4130;48.740;9.132;2023-06-10T11:40:55;29.20;76.90
8178;DHT22;4130;48.740;9.132;2023-06-10T11:43:22;28.90;78.60
8178;DHT22;4130;48.740;9.132;2023-06-10T11:45:54;28.80;77.80
8178;DHT22;4130;48.740;9.132;2023-06-10T11:48:21;28.70;78.50
8178;DHT22;4130;48.740;9.132;2023-06-10T11:50:47;28.90;78.80
8178;DHT22;4130;48.740;9.132;2023-06-10T11:53:16;28.90;78.40
8178;DHT22;4130;48.740;9.132;2023-06-10T11:55:44;28.90;79.40
8178;DHT22;4130;48.740;9.132;2023-06-10T11:58:14;28.70;78.10
8178;DHT22;4130;48.740;9.132;2023-06-10T12:00:46;28.50;77.70
8178;DHT22;4130;48.740;9.132;2023-06-10T12:03:13;28.30;78.40
8178;DHT22;4130;48.740;9.132;2023-06-10T12:05:40;28.20;78.20
8178;DHT22;4130;48.740;9.132;2023-06-10T12:08:11;28.60;78.20
8178;DHT22;4130;48.740;9.132;2023-06-10T12:10:42;29.40;78.90
8178;DHT22;4130;48.740;9.132;2023-06-10T12:13:09;30.20;76.40
8178;DHT22;4130;48.740;9.132;2023-06-10T12:15:36;30.80;75.50
8178;DHT22;4130;48.740;9.132;2023-06-10T12:18:03;31.40;75.60
8178;DHT22;4130;48.740;9.132;2023-06-10T12:20:32;32.10;74.20
8178;DHT22;4130;48.740;9.132;2023-06-10T12:23:00;32.60;73.90
8178;DHT22;4130;48.740;9.132;2023-06-10T12:25:28;32.50;73.20
8178;DHT22;4130;48.740;9.132;2023-06-10T12:27:58;31.80;73.60
8178;DHT22;4130;48.740;9.132;2023-06-10T12:30:26;30.90;73.50
8178;DHT22;4130;48.740;9.132;2023-06-10T12:32:53;30.20;75.30
8178;DHT22;4130;48.740;9.132;2023-06-10T12:35:22;29.90;76.30
8178;DHT22;4130;48.740;9.132;2023-06-10T12:37:56;29.70;75.70
8178;DHT22;4130;48.740;9.132;2023-06-10T12:40:28;29.80;76.40
8178;DHT22;4130;48.740;9.132;2023-06-10T12:42:58;29.70;76.20
8178;DHT22;4130;48.740;9.132;2023-06-10T12:45:29;29.60;76.40
8178;DHT22;4130;48.740;9.132;2023-06-10T12:48:07;29.20;75.80
8178;DHT22;4130;48.740;9.132;2023-06-10T12:50:35;29.00;76.80
8178;DHT22;4130;48.740;9.132;2023-06-10T12:53:03;29.00;77.40
8178;DHT22;4130;48.740;9.132;2023-06-10T12:55:29;28.90;76.10
8178;DHT22;4130;48.740;9.132;2023-06-10T12:57:57;28.90;76.70
8178;DHT22;4130;48.740;9.132;2023-06-10T13:00:26;28.90;76.60
8178;DHT22;4130;48.740;9.132;2023-06-10T13:02:55;28.90;77.00
8178;DHT22;4130;48.740;9.132;2023-06-10T13:05:22;28.90;76.50
8178;DHT22;4130;48.740;9.132;2023-06-10T13:07:49;29.20;78.00
8178;DHT22;4130;48.740;9.132;2023-06-10T13:10:17;29.80;77.40
8178;DHT22;4130;48.740;9.132;2023-06-10T13:12:44;30.50;76.50
8178;DHT22;4130;48.740;9.132;2023-06-10T13:15:13;30.90;74.40
8178;DHT22;4130;48.740;9.132;2023-06-10T13:17:40;31.10;73.90
8178;DHT22;4130;48.740;9.132;2023-06-10T13:20:07;31.20;74.80
8178;DHT22;4130;48.740;9.132;2023-06-10T13:22:35;31.30;73.70
8178;DHT22;4130;48.740;9.132;2023-06-10T13:25:02;31.30;73.60
8178;DHT22;4130;48.740;9.132;2023-06-10T13:27:29;31.30;73.60
8178;DHT22;4130;48.740;9.132;2023-06-10T13:29:56;31.50;74.30
8178;DHT22;4130;48.740;9.132;2023-06-10T13:32:24;31.40;73.90
8178;DHT22;4130;48.740;9.132;2023-06-10T13:34:51;31.60;73.20
8178;DHT22;4130;48.740;9.132;2023-06-10T13:37:18;31.60;72.90
8178;DHT22;4130;48.740;9.132;2023-06-10T13:39:46;31.20;73.10
8178;DHT22;4130;48.740;9.132;2023-06-10T13:42:13;30.90;73.20
8178;DHT22;4130;48.740;9.132;2023-06-10T13:44:40;30.50;73.40
8178;DHT22;4130;48.740;9.132;2023-06-10T13:47:07;30.20;73.50
8178;DHT22;4130;48.740;9.132;2023-06-10T13:49:35;29.90;74.20
8178;DHT22;4130;48.740;9.132;2023-06-10T13:52:03;29.90;74.00
8178;DHT22;4130;48.740;9.132;2023-06-10T13:54:30;29.80;73.60
8178;DHT22;4130;48.740;9.132;2023-06-10T13:56:56;30.00;72.80
8178;DHT22;4130;48.740;9.132;2023-06-10T13:59:23;30.10;73.30
8178;DHT22;4130;48.740;9.132;2023-06-10T14:01:50;30.50;74.30
8178;DHT22;4130;48.740;9.132;2023-06-10T14:04:17;30.80;72.80
8178;DHT22;4130;48.740;9.132;2023-06-10T14:06:45;31.10;72.10
8178;DHT22;4130;48.740;9.132;2023-06-10T14:09:13;31.10;73.20
8178;DHT22;4130;48.740;9.132;2023-06-10T14:11:39;31.00;72.60
8178;DHT22;4130;48.740;9.132;2023-06-10T14:14:06;31.00;72.80
8178;DHT22;4130;48.740;9.132;2023-06-10T14:16:33;30.60;71.50
8178;DHT22;4130;48.740;9.132;2023-06-10T14:19:00;30.30;72.50
8178;DHT22;4130;48.740;9.132;2023-06-10T14:21:27;30.00;72.30
8178;DHT22;4130;48.740;9.132;2023-06-10T14:23:55;29.70;73.00
8178;DHT22;4130;48.740;9.132;2023-06-10T14:26:21;29.60;73.50
8178;DHT22;4130;48.740;9.132;2023-06-10T14:28:48;29.50;72.90
8178;DHT22;4130;48.740;9.132;2023-06-10T14:31:15;29.50;73.00
8178;DHT22;4130;48.740;9.132;2023-06-10T14:33:42;29.60;73.80
8178;DHT22;4130;48.740;9.132;2023-06-10T14:36:09;29.70;73.20
8178;DHT22;4130;48.740;9.132;2023-06-10T14:38:36;29.80;72.30
8178;DHT22;4130;48.740;9.132;2023-06-10T14:41:04;30.00;73.20
8178;DHT22;4130;48.740;9.132;2023-06-10T14:43:31;30.10;73.40
8178;DHT22;4130;48.740;9.132;2023-06-10T14:45:57;30.30;72.50
8178;DHT22;4130;48.740;9.132;2023-06-10T14:48:24;30.10;72.80
8178;DHT22;4130;48.740;9.132;2023-06-10T14:50:51;29.70;72.80
8178;DHT22;4130;48.740;9.132;2023-06-10T14:53:20;29.30;72.90
8178;DHT22;4130;48.740;9.132;2023-06-10T14:55:47;28.70;73.00
8178;DHT22;4130;48.740;9.132;2023-06-10T14:58:15;28.50;74.10
8178;DHT22;4130;48.740;9.132;2023-06-10T15:00:42;28.30;74.00
8178;DHT22;4130;48.740;9.132;2023-06-10T15:03:09;28.50;74.80
8178;DHT22;4130;48.740;9.132;2023-06-10T15:05:35;29.00;73.90
8178;DHT22;4130;48.740;9.132;2023-06-10T15:08:03;29.50;74.00
8178;DHT22;4130;48.740;9.132;2023-06-10T15:10:30;29.30;73.80
8178;DHT22;4130;48.740;9.132;2023-06-10T15:12:57;29.00;73.90
8178;DHT22;4130;48.740;9.132;2023-06-10T15:15:25;28.70;74.50
8178;DHT22;4130;48.740;9.132;2023-06-10T15:17:52;28.20;74.60
8178;DHT22;4130;48.740;9.132;2023-06-10T15:20:19;27.90;75.30
8178;DHT22;4130;48.740;9.132;2023-06-10T15:22:46;27.90;76.00
8178;DHT22;4130;48.740;9.132;2023-06-10T15:25:13;27.90;75.50
8178;DHT22;4130;48.740;9.132;2023-06-10T15:27:40;28.20;74.50
8178;DHT22;4130;48.740;9.132;2023-06-10T15:30:07;28.50;74.70
8178;DHT22;4130;48.740;9.132;2023-06-10T15:32:35;28.70;74.30
8178;DHT22;4130;48.740;9.132;2023-06-10T15:35:02;28.80;75.00
8178;DHT22;4130;48.740;9.132;2023-06-10T15:37:29;28.80;75.30
8178;DHT22;4130;48.740;9.132;2023-06-10T15:39:56;28.70;74.70
8178;DHT22;4130;48.740;9.132;2023-06-10T15:42:23;28.80;74.80
8178;DHT22;4130;48.740;9.132;2023-06-10T15:44:49;28.80;74.40
8178;DHT22;4130;48.740;9.132;2023-06-10T15:47:18;28.80;74.00
8178;DHT22;4130;48.740;9.132;2023-06-10T15:49:46;28.90;74.50
8178;DHT22;4130;48.740;9.132;2023-06-10T15:52:13;29.00;74.10
8178;DHT22;4130;48.740;9.132;2023-06-10T15:54:39;29.00;74.90
8178;DHT22;4130;48.740;9.132;2023-06-10T15:57:06;29.20;74.40
8178;DHT22;4130;48.740;9.132;2023-06-10T15:59:33;29.20;73.60
8178;DHT22;4130;48.740;9.132;2023-06-10T16:02:00;29.30;73.20
8178;DHT22;4130;48.740;9.132;2023-06-10T16:04:28;29.40;73.30
8178;DHT22;4130;48.740;9.132;2023-06-10T16:06:56;29.50;73.70
8178;DHT22;4130;48.740;9.132;2023-06-10T16:09:23;29.50;73.80